Terminal Aerodrome Forecast
Issued by NWS

Home | Current Version | Previous Version | Graphics & Text | Print | Product List | Glossary On
Versions: 1 2 3 4 5 6 7 8 9 10 11 12 13 14 15 16 17 18 19 20 21
000
FTUS43 KABR 281120
TAFPIR
TAF
KPIR 281120Z 2812/2912 03011KT P6SM SCT009 OVC016
      TEMPO 2812/2816 BKN009
     FM290200 05007KT P6SM OVC025
     FM290800 VRB03KT P6SM OVC010=

USA.gov is the U.S. government's official web portal to all federal, state and local government web resources and services.